createdAt,value
2018-08-09T00:00:51.912Z,46.80
2018-08-09T00:01:56.973Z,46.80
2018-08-09T00:03:01.987Z,46.90
2018-08-09T00:04:07.587Z,46.80
2018-08-09T00:05:12.979Z,46.80
2018-08-09T00:06:18.533Z,46.90
2018-08-09T00:07:23.444Z,46.80
2018-08-09T00:08:28.110Z,46.80
2018-08-09T00:09:32.881Z,46.80
2018-08-09T00:10:38.436Z,46.80
2018-08-09T00:11:43.159Z,46.90
2018-08-09T00:12:47.908Z,46.80
2018-08-09T00:13:52.843Z,46.80
2018-08-09T00:14:58.054Z,46.90
2018-08-09T00:16:03.522Z,46.70
2018-08-09T00:17:08.316Z,46.70
2018-08-09T00:18:13.020Z,46.80
2018-08-09T00:19:18.467Z,46.80
2018-08-09T00:20:23.349Z,46.80
2018-08-09T00:21:28.155Z,46.80
2018-08-09T00:22:33.614Z,46.80
2018-08-09T00:23:39.069Z,46.70
2018-08-09T00:24:44.607Z,46.70
2018-08-09T00:25:49.366Z,46.80
2018-08-09T00:26:54.910Z,46.80
2018-08-09T00:27:59.644Z,46.70
2018-08-09T00:29:05.195Z,46.80
2018-08-09T00:30:09.961Z,46.80
2018-08-09T00:31:14.695Z,46.70
2018-08-09T00:32:19.418Z,46.80
2018-08-09T00:33:24.290Z,46.70
2018-08-09T00:34:29.664Z,47.40
2018-08-09T00:35:34.690Z,46.80
2018-08-09T00:36:40.118Z,46.80
2018-08-09T00:37:44.985Z,46.80
2018-08-09T00:38:50.426Z,46.80
2018-08-09T00:39:56.019Z,46.80
2018-08-09T00:41:00.744Z,46.80
2018-08-09T00:42:05.678Z,46.80
2018-08-09T00:43:10.532Z,46.80
2018-08-09T00:44:15.949Z,46.80
2018-08-09T00:45:20.674Z,46.80
2018-08-09T00:46:26.355Z,46.80
2018-08-09T00:47:31.945Z,47.40
2018-08-09T00:48:37.397Z,46.80
2018-08-09T00:49:42.821Z,46.70
2018-08-09T00:50:48.360Z,46.80
2018-08-09T00:51:53.112Z,46.80
2018-08-09T00:52:57.795Z,46.80
2018-08-09T00:54:02.500Z,46.80
2018-08-09T00:55:07.394Z,46.80
2018-08-09T00:56:12.971Z,46.80
2018-08-09T00:57:18.421Z,46.70
2018-08-09T00:58:23.445Z,46.80
2018-08-09T00:59:28.332Z,46.70
2018-08-09T01:00:33.886Z,46.80
2018-08-09T01:01:38.714Z,46.80
2018-08-09T01:02:44.332Z,46.80
2018-08-09T01:03:49.128Z,46.80
2018-08-09T01:04:54.648Z,46.70
2018-08-09T01:06:00.058Z,46.80
2018-08-09T01:07:05.560Z,46.80
2018-08-09T01:08:10.589Z,46.80
2018-08-09T01:09:16.260Z,46.80
2018-08-09T01:10:21.357Z,46.80
2018-08-09T01:11:26.226Z,47.30
2018-08-09T01:12:31.176Z,46.80
2018-08-09T01:13:36.181Z,46.80
2018-08-09T01:14:41.474Z,46.80
2018-08-09T01:15:46.298Z,46.80
2018-08-09T01:16:51.491Z,46.80
2018-08-09T01:17:56.261Z,46.70
2018-08-09T01:19:01.908Z,46.80
2018-08-09T01:20:07.542Z,46.80
2018-08-09T01:21:12.841Z,46.80
2018-08-09T01:22:17.769Z,46.70
2018-08-09T01:23:22.775Z,46.70
2018-08-09T01:24:27.711Z,46.70
2018-08-09T01:25:32.486Z,46.70
2018-08-09T01:26:38.219Z,46.70
2018-08-09T01:27:43.159Z,46.70
2018-08-09T01:28:48.017Z,46.70
2018-08-09T01:29:53.626Z,46.70
2018-08-09T01:30:58.342Z,46.70
2018-08-09T01:32:03.132Z,46.70
2018-08-09T01:33:07.924Z,46.70
2018-08-09T01:34:12.707Z,46.70
2018-08-09T01:35:18.296Z,46.70
2018-08-09T01:36:23.028Z,46.70
2018-08-09T01:37:28.610Z,46.70
2018-08-09T01:38:33.506Z,46.70
2018-08-09T01:39:39.069Z,46.70
2018-08-09T01:40:44.549Z,46.70
2018-08-09T01:41:49.287Z,46.70
2018-08-09T01:42:54.094Z,46.70
2018-08-09T01:43:59.717Z,46.70
2018-08-09T01:45:04.463Z,46.70
2018-08-09T01:46:10.080Z,46.70
2018-08-09T01:47:14.799Z,46.70
2018-08-09T01:48:20.378Z,46.70
2018-08-09T01:49:25.154Z,46.70
2018-08-09T01:50:30.740Z,46.70
2018-08-09T01:51:36.323Z,46.70
2018-08-09T01:52:41.238Z,46.70
2018-08-09T01:53:46.885Z,46.70
2018-08-09T01:54:52.460Z,46.70
2018-08-09T01:55:57.891Z,46.70
2018-08-09T01:57:02.675Z,46.70
2018-08-09T01:58:07.424Z,46.70
2018-08-09T01:59:12.763Z,46.70
2018-08-09T02:00:18.143Z,46.70
2018-08-09T02:01:23.568Z,46.70
2018-08-09T02:02:29.123Z,46.70
2018-08-09T02:03:34.680Z,46.60
2018-08-09T02:04:40.226Z,46.70
2018-08-09T02:05:44.977Z,46.70
2018-08-09T02:06:50.395Z,46.60
2018-08-09T02:07:55.281Z,46.70
2018-08-09T02:08:59.954Z,46.60
2018-08-09T02:10:05.461Z,46.70
2018-08-09T02:11:10.980Z,46.70
2018-08-09T02:12:16.364Z,46.60
2018-08-09T02:13:21.147Z,46.60
2018-08-09T02:14:26.278Z,46.80
2018-08-09T02:15:31.254Z,46.70
2018-08-09T02:16:36.771Z,46.60
2018-08-09T02:17:41.686Z,46.60
2018-08-09T02:18:47.082Z,46.70
2018-08-09T02:19:51.797Z,46.70
2018-08-09T02:20:56.527Z,46.70
2018-08-09T02:22:01.972Z,46.60
2018-08-09T02:23:06.761Z,46.60
2018-08-09T02:24:12.160Z,46.70
2018-08-09T02:25:17.779Z,46.70
2018-08-09T02:26:23.200Z,46.60
2018-08-09T02:27:28.818Z,46.60
2018-08-09T02:28:33.830Z,46.60
2018-08-09T02:29:39.370Z,46.60
2018-08-09T02:30:44.024Z,46.70
2018-08-09T02:31:48.725Z,46.60
2018-08-09T02:32:53.583Z,46.60
2018-08-09T02:33:58.387Z,46.70
2018-08-09T02:35:04.005Z,46.70
2018-08-09T02:36:08.663Z,46.60
2018-08-09T02:37:14.212Z,46.60
2018-08-09T02:38:18.949Z,46.60
2018-08-09T02:39:24.601Z,46.60
2018-08-09T02:40:30.016Z,46.60
2018-08-09T02:41:35.439Z,46.70
2018-08-09T02:42:40.129Z,47.30
2018-08-09T02:43:44.973Z,46.70
2018-08-09T02:44:50.395Z,46.60
2018-08-09T02:45:55.229Z,46.60
2018-08-09T02:47:00.115Z,46.60
2018-08-09T02:48:04.815Z,46.60
2018-08-09T02:49:09.507Z,46.70
2018-08-09T02:50:14.916Z,46.70
2018-08-09T02:51:19.741Z,46.70
2018-08-09T02:52:25.138Z,46.70
2018-08-09T02:53:30.580Z,46.70
2018-08-09T02:54:35.303Z,46.60
2018-08-09T02:55:40.797Z,46.70
2018-08-09T02:56:45.684Z,46.60
2018-08-09T02:57:51.220Z,46.60
2018-08-09T02:58:55.945Z,46.60
2018-08-09T03:00:00.738Z,46.60
2018-08-09T03:01:06.296Z,46.60
2018-08-09T03:02:11.703Z,46.60
2018-08-09T03:03:17.086Z,46.60
2018-08-09T03:04:22.007Z,46.70
2018-08-09T03:05:26.958Z,46.70
2018-08-09T03:06:31.873Z,46.60
2018-08-09T03:07:37.451Z,46.60
2018-08-09T03:08:42.885Z,46.60
2018-08-09T03:09:47.664Z,46.60
2018-08-09T03:10:53.214Z,46.70
2018-08-09T03:11:58.075Z,46.60
2018-08-09T03:13:03.679Z,46.70
2018-08-09T03:14:08.591Z,46.60
2018-08-09T03:15:14.010Z,46.60
2018-08-09T03:16:19.576Z,46.60
2018-08-09T03:17:25.025Z,46.60
2018-08-09T03:18:29.797Z,46.70
2018-08-09T03:19:34.518Z,46.70
2018-08-09T03:20:39.931Z,46.70
2018-08-09T03:21:44.802Z,46.60
2018-08-09T03:22:49.559Z,46.70
2018-08-09T03:23:55.112Z,46.60
2018-08-09T03:24:59.960Z,46.70
2018-08-09T03:26:04.697Z,46.60
2018-08-09T03:27:09.466Z,46.70
2018-08-09T03:28:14.856Z,46.70
2018-08-09T03:29:20.227Z,46.60
2018-08-09T03:30:24.947Z,46.60
2018-08-09T03:31:29.929Z,46.70
2018-08-09T03:32:35.536Z,46.60
2018-08-09T03:33:40.419Z,46.60
2018-08-09T03:34:45.327Z,46.70
2018-08-09T03:35:50.264Z,46.60
2018-08-09T03:36:55.011Z,46.70
2018-08-09T03:37:59.801Z,46.70
2018-08-09T03:39:05.236Z,46.60
2018-08-09T03:40:10.831Z,46.70
2018-08-09T03:41:16.455Z,46.70
2018-08-09T03:42:21.144Z,46.60
2018-08-09T03:43:26.579Z,46.60
2018-08-09T03:44:31.485Z,46.70
2018-08-09T03:45:36.361Z,46.70
2018-08-09T03:46:41.113Z,46.60
2018-08-09T03:47:46.105Z,46.70
2018-08-09T03:48:51.518Z,46.70
2018-08-09T03:49:56.249Z,46.60
2018-08-09T03:51:01.151Z,46.60
2018-08-09T03:52:06.030Z,46.60
2018-08-09T03:53:15.985Z,46.70
2018-08-09T03:54:25.582Z,46.70
2018-08-09T03:55:30.370Z,46.60
2018-08-09T03:56:35.320Z,46.60
2018-08-09T03:57:40.634Z,46.60
2018-08-09T03:58:45.368Z,46.60
2018-08-09T03:59:50.951Z,46.60
2018-08-09T04:00:56.392Z,46.60
2018-08-09T04:02:02.031Z,46.60
2018-08-09T04:03:07.487Z,46.60
2018-08-09T04:04:12.251Z,46.60
2018-08-09T04:05:17.115Z,46.60
2018-08-09T04:06:21.976Z,46.60
2018-08-09T04:07:26.708Z,46.60
2018-08-09T04:08:31.517Z,46.60
2018-08-09T04:09:37.036Z,46.60
2018-08-09T04:10:41.907Z,46.60
2018-08-09T04:11:47.388Z,46.60
2018-08-09T04:12:52.085Z,46.60
2018-08-09T04:13:57.519Z,46.60
2018-08-09T04:15:02.427Z,46.60
2018-08-09T04:16:07.970Z,46.60
2018-08-09T04:17:12.773Z,46.60
2018-08-09T04:18:17.556Z,46.60
2018-08-09T04:19:23.023Z,46.60
2018-08-09T04:20:28.577Z,46.60
2018-08-09T04:21:34.014Z,46.60
2018-08-09T04:22:39.680Z,46.60
2018-08-09T04:23:45.064Z,46.60
2018-08-09T04:24:50.020Z,46.60
2018-08-09T04:25:54.868Z,46.60
2018-08-09T04:26:59.594Z,46.60
2018-08-09T04:28:05.173Z,46.60
2018-08-09T04:29:09.968Z,46.60
2018-08-09T04:30:15.353Z,46.60
2018-08-09T04:31:20.812Z,46.60
2018-08-09T04:32:25.730Z,46.60
2018-08-09T04:33:30.677Z,46.60
2018-08-09T04:34:36.270Z,46.60
2018-08-09T04:35:41.051Z,46.60
2018-08-09T04:36:45.840Z,46.60
2018-08-09T04:37:50.828Z,46.80
2018-08-09T04:38:55.578Z,46.90
2018-08-09T04:40:00.657Z,46.90
2018-08-09T04:41:05.472Z,47.00
2018-08-09T04:42:11.086Z,47.00
2018-08-09T04:43:15.832Z,47.10
2018-08-09T04:44:20.595Z,47.20
2018-08-09T04:45:25.510Z,47.30
2018-08-09T04:46:31.065Z,47.30
2018-08-09T04:47:35.978Z,47.40
2018-08-09T04:48:41.587Z,47.40
2018-08-09T04:49:46.764Z,47.50
2018-08-09T04:50:52.219Z,47.50
2018-08-09T04:51:57.856Z,47.60
2018-08-09T04:53:03.445Z,47.60
2018-08-09T04:54:08.184Z,47.50
2018-08-09T04:55:13.885Z,47.70
2018-08-09T04:56:18.810Z,47.70
2018-08-09T04:57:23.577Z,47.80
2018-08-09T04:58:29.221Z,47.80
2018-08-09T04:59:34.083Z,47.90
2018-08-09T05:00:38.880Z,47.80
2018-08-09T05:01:44.283Z,47.90
2018-08-09T05:02:49.685Z,47.90
2018-08-09T05:03:55.297Z,47.90
2018-08-09T05:05:00.719Z,47.90
2018-08-09T05:06:06.143Z,48.00
2018-08-09T05:07:11.122Z,48.00
2018-08-09T05:08:15.828Z,48.00
2018-08-09T05:09:21.346Z,48.00
2018-08-09T05:10:26.944Z,48.00
2018-08-09T05:11:32.538Z,48.00
2018-08-09T05:12:37.466Z,48.00
2018-08-09T05:13:42.270Z,48.10
2018-08-09T05:14:47.095Z,48.10
2018-08-09T05:15:51.912Z,48.20
2018-08-09T05:16:57.361Z,48.10
2018-08-09T05:18:02.203Z,48.10
2018-08-09T05:19:07.797Z,48.20
2018-08-09T05:20:12.702Z,48.20
2018-08-09T05:21:18.414Z,48.20
2018-08-09T05:22:23.313Z,48.30
2018-08-09T05:23:28.858Z,48.30
2018-08-09T05:24:33.786Z,48.30
2018-08-09T05:25:38.618Z,48.30
2018-08-09T05:26:44.077Z,48.30
2018-08-09T05:27:49.630Z,48.30
2018-08-09T05:28:54.431Z,48.30
2018-08-09T05:29:59.382Z,48.30
2018-08-09T05:31:05.006Z,48.30
2018-08-09T05:32:10.610Z,48.30
2018-08-09T05:33:16.067Z,48.30
2018-08-09T05:34:20.826Z,48.30
2018-08-09T05:35:25.720Z,48.30
2018-08-09T05:36:30.937Z,48.30
2018-08-09T05:37:35.856Z,48.30
2018-08-09T05:38:40.637Z,48.30
2018-08-09T05:39:46.109Z,48.30
2018-08-09T05:40:51.685Z,48.30
2018-08-09T05:41:57.294Z,48.30
2018-08-09T05:43:02.718Z,48.30
2018-08-09T05:44:07.528Z,48.20
2018-08-09T05:45:12.381Z,48.10
2018-08-09T05:46:17.131Z,48.00
2018-08-09T05:47:22.733Z,48.00
2018-08-09T05:48:27.642Z,47.90
2018-08-09T05:49:32.419Z,47.90
2018-08-09T05:50:37.906Z,47.80
2018-08-09T05:51:42.624Z,47.70
2018-08-09T05:52:47.733Z,47.80
2018-08-09T05:53:53.213Z,47.70
2018-08-09T05:54:58.667Z,48.30
2018-08-09T05:56:03.488Z,47.60
2018-08-09T05:57:08.262Z,47.60
2018-08-09T05:58:13.681Z,47.60
2018-08-09T05:59:18.552Z,47.50
2018-08-09T06:00:24.043Z,47.50
2018-08-09T06:01:28.977Z,47.50
2018-08-09T06:02:33.782Z,47.50
2018-08-09T06:03:39.374Z,47.40
2018-08-09T06:04:45.090Z,47.50
2018-08-09T06:05:50.700Z,47.50
2018-08-09T06:06:56.154Z,47.40
2018-08-09T06:08:01.639Z,47.40
2018-08-09T06:09:07.141Z,47.30
2018-08-09T06:10:12.792Z,47.30
2018-08-09T06:11:17.795Z,47.30
2018-08-09T06:12:22.761Z,47.30
2018-08-09T06:13:27.543Z,47.20
2018-08-09T06:14:32.352Z,47.20
2018-08-09T06:15:38.035Z,47.20
2018-08-09T06:16:43.024Z,47.20
2018-08-09T06:17:48.699Z,47.10
2018-08-09T06:18:54.374Z,47.10
2018-08-09T06:19:59.221Z,47.10
2018-08-09T06:21:04.160Z,47.10
2018-08-09T06:22:09.164Z,47.10
2018-08-09T06:23:14.756Z,47.10
2018-08-09T06:24:20.338Z,47.00
2018-08-09T06:25:25.799Z,47.00
2018-08-09T06:26:31.324Z,47.00
2018-08-09T06:27:36.775Z,47.00
2018-08-09T06:28:41.672Z,47.00
2018-08-09T06:29:47.122Z,47.00
2018-08-09T06:30:52.952Z,46.90
2018-08-09T06:31:57.733Z,46.90
2018-08-09T06:33:03.375Z,46.90
2018-08-09T06:34:08.375Z,46.90
2018-08-09T06:35:13.405Z,46.90
2018-08-09T06:36:18.413Z,46.80
2018-08-09T06:37:23.990Z,46.80
2018-08-09T06:38:29.407Z,46.80
2018-08-09T06:39:35.048Z,46.70
2018-08-09T06:40:40.055Z,46.70
2018-08-09T06:41:45.773Z,46.70
2018-08-09T06:42:50.729Z,46.60
2018-08-09T06:43:55.489Z,46.60
2018-08-09T06:45:00.452Z,46.60
2018-08-09T06:46:06.069Z,46.60
2018-08-09T06:47:11.572Z,46.60
2018-08-09T06:48:17.188Z,46.60
2018-08-09T06:49:22.826Z,46.50
2018-08-09T06:50:28.450Z,46.40
2018-08-09T06:51:33.955Z,46.40
2018-08-09T06:52:39.596Z,46.30
2018-08-09T06:53:44.540Z,46.30
2018-08-09T06:54:49.932Z,46.30
2018-08-09T06:55:55.434Z,46.30
2018-08-09T06:57:00.843Z,46.30
2018-08-09T06:58:05.583Z,46.20
2018-08-09T06:59:11.552Z,46.10
2018-08-09T07:00:16.754Z,46.00
2018-08-09T07:01:22.523Z,46.00
2018-08-09T07:02:28.098Z,46.00
2018-08-09T07:03:33.006Z,45.80
2018-08-09T07:04:37.939Z,45.80
2018-08-09T07:05:43.398Z,45.80
2018-08-09T07:06:48.314Z,45.80
2018-08-09T07:07:53.764Z,45.70
2018-08-09T07:08:58.705Z,45.70
2018-08-09T07:10:03.483Z,45.60
2018-08-09T07:11:09.019Z,45.60
2018-08-09T07:12:13.801Z,45.60
2018-08-09T07:13:18.585Z,45.50
2018-08-09T07:14:24.072Z,45.50
2018-08-09T07:15:29.534Z,45.50
2018-08-09T07:16:34.445Z,45.50
2018-08-09T07:17:40.032Z,46.20
2018-08-09T07:18:44.820Z,45.50
2018-08-09T07:19:49.803Z,45.50
2018-08-09T07:20:54.733Z,45.50
2018-08-09T07:22:00.396Z,45.50
2018-08-09T07:23:05.168Z,45.50
2018-08-09T07:24:10.695Z,46.20
2018-08-09T07:25:16.165Z,45.50
2018-08-09T07:26:21.769Z,45.50
2018-08-09T07:27:27.212Z,45.50
2018-08-09T07:28:32.697Z,46.10
2018-08-09T07:29:38.144Z,45.40
2018-08-09T07:30:42.888Z,45.40
2018-08-09T07:31:47.653Z,45.50
2018-08-09T07:32:53.243Z,45.50
2018-08-09T07:33:58.884Z,45.50
2018-08-09T07:35:03.678Z,45.50
2018-08-09T07:36:09.361Z,45.50
2018-08-09T07:37:15.024Z,45.50
2018-08-09T07:38:19.995Z,45.50
2018-08-09T07:39:24.941Z,45.40
2018-08-09T07:40:30.654Z,45.40
2018-08-09T07:41:35.596Z,45.40
2018-08-09T07:42:40.506Z,45.40
2018-08-09T07:43:46.026Z,45.40
2018-08-09T07:44:50.900Z,45.40
2018-08-09T07:45:55.691Z,45.40
2018-08-09T07:47:00.600Z,45.40
2018-08-09T07:48:06.073Z,45.40
2018-08-09T07:49:11.048Z,45.40
2018-08-09T07:50:16.112Z,45.40
2018-08-09T07:51:21.739Z,45.30
2018-08-09T07:52:26.753Z,45.30
2018-08-09T07:53:31.554Z,45.30
2018-08-09T07:54:36.387Z,45.20
2018-08-09T07:55:41.340Z,45.20
2018-08-09T07:56:46.229Z,45.20
2018-08-09T07:57:51.798Z,45.20
2018-08-09T07:58:57.424Z,45.20
2018-08-09T08:00:03.083Z,45.20
2018-08-09T08:01:07.871Z,45.20
2018-08-09T08:02:13.525Z,45.20
2018-08-09T08:03:19.034Z,45.20
2018-08-09T08:04:23.992Z,45.20
2018-08-09T08:05:29.531Z,45.10
2018-08-09T08:06:34.486Z,45.10
2018-08-09T08:07:39.274Z,45.00
2018-08-09T08:08:44.965Z,45.00
2018-08-09T08:09:50.533Z,45.00
2018-08-09T08:10:56.018Z,44.90
2018-08-09T08:12:01.900Z,44.90
2018-08-09T08:13:07.571Z,44.90
2018-08-09T08:14:12.498Z,44.90
2018-08-09T08:15:17.930Z,44.90
2018-08-09T08:16:22.835Z,45.00
2018-08-09T08:17:27.888Z,45.10
2018-08-09T08:18:32.717Z,45.00
2018-08-09T08:19:38.187Z,45.00
2018-08-09T08:20:43.000Z,45.00
2018-08-09T08:21:47.723Z,44.90
2018-08-09T08:22:53.339Z,44.90
2018-08-09T08:23:58.739Z,45.00
2018-08-09T08:25:03.728Z,45.00
2018-08-09T08:26:09.171Z,45.00
2018-08-09T08:27:14.662Z,45.00
2018-08-09T08:28:20.246Z,45.00
2018-08-09T08:29:25.068Z,45.00
2018-08-09T08:30:30.015Z,45.00
2018-08-09T08:31:35.761Z,45.00
2018-08-09T08:32:41.213Z,45.00
2018-08-09T08:33:46.658Z,45.00
2018-08-09T08:34:52.266Z,45.00
2018-08-09T08:35:57.152Z,45.00
2018-08-09T08:37:02.004Z,45.00
2018-08-09T08:38:08.220Z,45.10
2018-08-09T08:39:12.971Z,45.00
2018-08-09T08:40:18.429Z,45.00
2018-08-09T08:41:23.262Z,45.00
2018-08-09T08:42:28.756Z,45.00
2018-08-09T08:43:33.500Z,45.00
2018-08-09T08:44:38.916Z,45.00
2018-08-09T08:45:43.696Z,45.00
2018-08-09T08:46:48.671Z,45.00
2018-08-09T08:47:53.428Z,45.00
2018-08-09T08:48:58.989Z,45.00
2018-08-09T08:50:03.866Z,45.00
2018-08-09T08:51:09.440Z,45.10
2018-08-09T08:52:14.887Z,45.10
2018-08-09T08:53:19.678Z,45.00
2018-08-09T08:54:25.275Z,45.00
2018-08-09T08:55:30.438Z,45.10
2018-08-09T08:56:36.071Z,45.10
2018-08-09T08:57:40.820Z,45.10
2018-08-09T08:58:45.772Z,45.00
2018-08-09T08:59:51.239Z,45.00
2018-08-09T09:00:56.891Z,45.10
2018-08-09T09:02:01.620Z,45.10
2018-08-09T09:03:06.549Z,45.00
2018-08-09T09:04:12.038Z,45.10
2018-08-09T09:05:16.987Z,45.00
2018-08-09T09:06:21.976Z,45.10
2018-08-09T09:07:27.674Z,45.00
2018-08-09T09:08:33.313Z,45.10
2018-08-09T09:09:39.011Z,45.00
2018-08-09T09:10:44.036Z,45.10
2018-08-09T09:11:48.815Z,45.10
2018-08-09T09:12:53.679Z,45.10
2018-08-09T09:13:58.689Z,45.20
2018-08-09T09:15:03.436Z,45.00
2018-08-09T09:16:09.252Z,45.00
2018-08-09T09:17:14.378Z,45.10
2018-08-09T09:18:19.402Z,45.10
2018-08-09T09:19:24.385Z,45.10
2018-08-09T09:20:30.369Z,45.00
2018-08-09T09:21:35.315Z,45.00
2018-08-09T09:22:41.006Z,45.10
2018-08-09T09:23:46.706Z,45.10
2018-08-09T09:24:51.568Z,45.10
2018-08-09T09:25:56.313Z,45.10
2018-08-09T09:27:01.949Z,45.10
2018-08-09T09:28:06.708Z,45.10
2018-08-09T09:29:12.339Z,45.10
2018-08-09T09:30:18.089Z,45.10
2018-08-09T09:31:23.622Z,45.10
2018-08-09T09:32:29.200Z,45.10
2018-08-09T09:33:34.345Z,45.10
2018-08-09T09:34:39.202Z,45.00
2018-08-09T09:35:44.712Z,45.70
2018-08-09T09:36:50.369Z,45.10
2018-08-09T09:37:55.937Z,45.00
2018-08-09T09:39:00.966Z,45.10
2018-08-09T09:40:06.565Z,45.10
2018-08-09T09:41:12.127Z,45.10
2018-08-09T09:42:17.802Z,45.10
2018-08-09T09:43:23.432Z,45.10
2018-08-09T09:44:28.390Z,45.10
2018-08-09T09:45:33.469Z,45.10
2018-08-09T09:46:38.479Z,45.10
2018-08-09T09:47:43.290Z,45.10
2018-08-09T09:48:48.977Z,45.00
2018-08-09T09:49:53.941Z,45.00
2018-08-09T09:50:58.771Z,45.00
2018-08-09T09:52:03.705Z,45.00
2018-08-09T09:53:09.162Z,45.00
2018-08-09T09:54:14.830Z,45.00
2018-08-09T09:55:20.372Z,45.10
2018-08-09T09:56:25.801Z,45.00
2018-08-09T09:57:30.590Z,45.00
2018-08-09T09:58:35.570Z,45.00
2018-08-09T09:59:41.078Z,45.00
2018-08-09T10:00:45.870Z,45.00
2018-08-09T10:01:50.706Z,45.00
2018-08-09T10:02:55.367Z,45.00
2018-08-09T10:04:00.302Z,45.00
2018-08-09T10:05:05.231Z,45.10
2018-08-09T10:06:10.914Z,45.00
2018-08-09T10:07:16.549Z,45.00
2018-08-09T10:08:22.019Z,45.00
2018-08-09T10:09:26.768Z,45.00
2018-08-09T10:10:32.404Z,45.00
2018-08-09T10:11:37.216Z,45.00
2018-08-09T10:12:42.209Z,45.00
2018-08-09T10:13:47.763Z,45.60
2018-08-09T10:14:52.636Z,45.00
2018-08-09T10:15:58.170Z,45.00
2018-08-09T10:17:03.031Z,45.00
2018-08-09T10:18:07.936Z,45.00
2018-08-09T10:19:13.489Z,45.00
2018-08-09T10:20:19.145Z,45.00
2018-08-09T10:21:24.878Z,45.00
2018-08-09T10:22:30.404Z,45.00
2018-08-09T10:23:35.376Z,45.00
2018-08-09T10:24:40.988Z,45.00
2018-08-09T10:25:45.781Z,45.00
2018-08-09T10:26:50.910Z,45.00
2018-08-09T10:27:55.871Z,45.10
2018-08-09T10:29:01.394Z,45.00
2018-08-09T10:30:06.476Z,45.00
2018-08-09T10:31:11.300Z,45.00
2018-08-09T10:32:16.129Z,45.00
2018-08-09T10:33:21.004Z,45.00
2018-08-09T10:34:25.949Z,45.00
2018-08-09T10:35:31.115Z,45.00
2018-08-09T10:36:36.601Z,45.00
2018-08-09T10:37:41.648Z,45.00
2018-08-09T10:38:47.239Z,45.00
2018-08-09T10:39:52.886Z,45.00
2018-08-09T10:40:58.508Z,45.00
2018-08-09T10:42:03.989Z,45.00
2018-08-09T10:43:08.834Z,45.00
2018-08-09T10:44:14.444Z,45.00
2018-08-09T10:45:19.208Z,45.00
2018-08-09T10:46:24.779Z,45.00
2018-08-09T10:47:29.853Z,45.00
2018-08-09T10:48:34.634Z,45.00
2018-08-09T10:49:39.384Z,45.00
2018-08-09T10:50:44.964Z,45.00
2018-08-09T10:51:50.653Z,45.00
2018-08-09T10:52:56.280Z,45.10
2018-08-09T10:54:01.225Z,45.10
2018-08-09T10:55:06.760Z,45.00
2018-08-09T10:56:11.735Z,45.10
2018-08-09T10:57:17.319Z,45.10
2018-08-09T10:58:22.829Z,45.10
2018-08-09T10:59:28.451Z,45.10
2018-08-09T11:00:33.494Z,45.10
2018-08-09T11:01:39.010Z,45.10
2018-08-09T11:02:44.007Z,45.10
2018-08-09T11:03:48.884Z,45.20
2018-08-09T11:04:53.916Z,45.20
2018-08-09T11:05:59.565Z,45.20
2018-08-09T11:07:04.366Z,45.20
2018-08-09T11:08:09.946Z,45.10
2018-08-09T11:09:15.077Z,45.20
2018-08-09T11:10:20.546Z,45.20
2018-08-09T11:11:26.245Z,45.20
2018-08-09T11:12:31.925Z,45.20
2018-08-09T11:13:36.706Z,45.10
2018-08-09T11:14:42.426Z,45.10
2018-08-09T11:15:48.096Z,45.20
2018-08-09T11:16:53.889Z,45.10
2018-08-09T11:17:59.417Z,45.10
2018-08-09T11:19:04.159Z,45.20
2018-08-09T11:20:08.963Z,45.10
2018-08-09T11:21:14.445Z,45.10
2018-08-09T11:22:19.421Z,45.10
2018-08-09T11:23:25.081Z,45.00
2018-08-09T11:24:30.050Z,45.00
2018-08-09T11:25:34.998Z,45.00
2018-08-09T11:26:39.651Z,45.10
2018-08-09T11:27:45.132Z,45.00
2018-08-09T11:28:50.733Z,45.10
2018-08-09T11:29:55.634Z,45.10
2018-08-09T11:31:00.548Z,45.10
2018-08-09T11:32:05.567Z,45.10
2018-08-09T11:33:11.077Z,45.10
2018-08-09T11:34:16.585Z,45.10
2018-08-09T11:35:21.518Z,45.10
2018-08-09T11:36:27.288Z,45.20
2018-08-09T11:37:32.091Z,45.10
2018-08-09T11:38:37.902Z,45.20
2018-08-09T11:39:43.664Z,45.20
2018-08-09T11:40:49.407Z,45.20
2018-08-09T11:41:54.930Z,45.20
2018-08-09T11:43:00.090Z,45.20
2018-08-09T11:44:05.795Z,45.20
2018-08-09T11:45:10.769Z,45.20
2018-08-09T11:46:15.714Z,45.30
2018-08-09T11:47:21.338Z,45.30
2018-08-09T11:48:26.852Z,45.30
2018-08-09T11:49:32.375Z,45.90
2018-08-09T11:50:37.212Z,45.30
2018-08-09T11:51:42.107Z,45.20
2018-08-09T11:52:46.918Z,45.30
2018-08-09T11:53:51.671Z,45.30
2018-08-09T11:54:56.495Z,45.30
2018-08-09T11:56:01.989Z,45.20
2018-08-09T11:57:06.945Z,45.20
2018-08-09T11:58:12.483Z,45.30
2018-08-09T11:59:17.951Z,45.20
2018-08-09T12:00:22.741Z,45.30
2018-08-09T12:01:27.612Z,45.30
2018-08-09T12:02:32.300Z,45.20
2018-08-09T12:03:37.259Z,45.30
2018-08-09T12:04:42.051Z,45.30
2018-08-09T12:05:47.032Z,45.30
2018-08-09T12:06:52.508Z,45.30
2018-08-09T12:07:57.439Z,45.30
2018-08-09T12:09:02.945Z,45.30
2018-08-09T12:10:08.613Z,45.30
2018-08-09T12:11:13.515Z,45.30
2018-08-09T12:12:18.999Z,45.30
2018-08-09T12:13:24.660Z,45.30
2018-08-09T12:14:30.069Z,46.00
2018-08-09T12:15:34.920Z,45.30
2018-08-09T12:16:39.936Z,45.30
2018-08-09T12:17:44.751Z,45.30
2018-08-09T12:18:49.562Z,45.40
2018-08-09T12:19:55.061Z,45.40
2018-08-09T12:21:00.049Z,45.40
2018-08-09T12:22:04.845Z,45.40
2018-08-09T12:23:10.332Z,45.40
2018-08-09T12:24:16.038Z,45.40
2018-08-09T12:25:21.639Z,45.40
2018-08-09T12:26:27.115Z,45.40
2018-08-09T12:27:32.714Z,45.30
2018-08-09T12:28:38.293Z,45.40
2018-08-09T12:29:43.034Z,45.40
2018-08-09T12:30:48.612Z,45.40
2018-08-09T12:31:54.110Z,45.40
2018-08-09T12:32:59.372Z,45.40
2018-08-09T12:34:04.096Z,45.40
2018-08-09T12:35:09.044Z,45.40
2018-08-09T12:36:14.510Z,45.30
2018-08-09T12:37:19.966Z,45.30
2018-08-09T12:38:24.973Z,45.30
2018-08-09T12:39:30.451Z,45.30
2018-08-09T12:40:35.351Z,45.30
2018-08-09T12:41:40.073Z,45.30
2018-08-09T12:42:44.836Z,45.30
2018-08-09T12:43:50.279Z,45.40
2018-08-09T12:44:55.708Z,45.70
2018-08-09T12:46:00.477Z,45.30
2018-08-09T12:47:06.080Z,45.30
2018-08-09T12:48:10.786Z,45.40
2018-08-09T12:49:15.625Z,45.40
2018-08-09T12:50:20.387Z,45.30
2018-08-09T12:51:25.811Z,45.40
2018-08-09T12:52:30.707Z,45.40
2018-08-09T12:53:36.160Z,45.40
2018-08-09T12:54:40.945Z,45.40
2018-08-09T12:55:45.660Z,45.30
2018-08-09T12:56:51.127Z,45.30
2018-08-09T12:57:55.988Z,45.40
2018-08-09T12:59:01.472Z,45.30
2018-08-09T13:00:06.256Z,45.30
2018-08-09T13:01:11.862Z,45.40
2018-08-09T13:02:16.787Z,45.30
2018-08-09T13:03:21.677Z,45.30
2018-08-09T13:04:26.449Z,45.30
2018-08-09T13:05:31.854Z,45.30
2018-08-09T13:06:36.581Z,45.30
2018-08-09T13:07:41.575Z,45.30
2018-08-09T13:08:47.025Z,45.40
2018-08-09T13:09:51.784Z,45.30
2018-08-09T13:10:56.584Z,45.40
2018-08-09T13:12:02.267Z,45.40
2018-08-09T13:13:07.196Z,45.40
2018-08-09T13:14:12.681Z,45.40
2018-08-09T13:15:18.206Z,45.40
2018-08-09T13:16:23.153Z,45.50
2018-08-09T13:17:28.060Z,45.40
2018-08-09T13:18:33.700Z,45.40
2018-08-09T13:19:39.444Z,45.50
2018-08-09T13:20:44.349Z,45.50
2018-08-09T13:21:49.969Z,45.50
2018-08-09T13:22:55.475Z,45.50
2018-08-09T13:24:00.730Z,45.50
2018-08-09T13:25:06.262Z,45.50
2018-08-09T13:26:13.606Z,45.50
2018-08-09T13:27:20.708Z,45.50
2018-08-09T13:28:26.896Z,45.50
2018-08-09T13:29:33.366Z,45.50
2018-08-09T13:30:39.051Z,45.50
2018-08-09T13:31:43.930Z,45.50
2018-08-09T13:32:48.737Z,45.50
2018-08-09T13:33:53.773Z,45.50
2018-08-09T13:34:58.519Z,45.50
2018-08-09T13:36:04.135Z,45.50
2018-08-09T13:37:09.056Z,45.50
2018-08-09T13:38:13.924Z,45.50
2018-08-09T13:39:19.355Z,45.40
2018-08-09T13:40:24.956Z,45.50
2018-08-09T13:41:30.531Z,45.50
2018-08-09T13:42:35.280Z,45.50
2018-08-09T13:43:40.673Z,45.50
2018-08-09T13:44:46.311Z,45.50
2018-08-09T13:45:51.235Z,45.50
2018-08-09T13:46:55.986Z,45.50
2018-08-09T13:48:02.715Z,45.50
2018-08-09T13:49:09.530Z,45.50
2018-08-09T13:50:16.509Z,45.50
2018-08-09T13:51:23.689Z,45.50
2018-08-09T13:52:29.233Z,45.50
2018-08-09T13:53:35.067Z,45.50
2018-08-09T13:54:42.075Z,45.50
2018-08-09T13:55:47.802Z,45.40
2018-08-09T13:56:54.096Z,45.50
2018-08-09T13:58:01.041Z,45.50
2018-08-09T13:59:06.954Z,45.50
2018-08-09T14:00:14.645Z,45.60